createdAt,value
2023-02-13T00:04:09.610Z,103064.16
2023-02-13T00:09:13.128Z,103065.94
2023-02-13T00:14:17.933Z,103066.53
2023-02-13T00:19:21.376Z,103069.94
2023-02-13T00:24:24.861Z,103055.91
2023-02-13T00:29:29.704Z,103056.56
2023-02-13T00:34:33.172Z,103054.25
2023-02-13T00:39:38.064Z,103064.75
2023-02-13T00:44:42.843Z,103064.38
2023-02-13T00:49:46.400Z,103056.41
2023-02-13T00:54:49.767Z,103060.41
2023-02-13T00:59:54.592Z,103061.28
2023-02-13T01:04:58.031Z,103055.56
2023-02-13T01:10:01.620Z,103056.78
2023-02-13T01:15:08.591Z,103050.03
2023-02-13T01:20:13.939Z,103046.22
2023-02-13T01:25:17.710Z,103040.53
2023-02-13T01:30:22.624Z,103031.50
2023-02-13T01:35:26.088Z,103036.81
2023-02-13T01:40:30.046Z,103038.94
2023-02-13T01:45:35.071Z,103022.75
2023-02-13T01:50:41.841Z,103024.00
2023-02-13T01:55:48.926Z,103017.47
2023-02-13T02:00:53.776Z,103010.22
2023-02-13T02:05:58.333Z,103018.72
2023-02-13T02:11:06.641Z,103008.00
2023-02-13T02:16:11.869Z,103012.06
2023-02-13T02:21:29.881Z,103015.81
2023-02-13T02:27:11.081Z,103011.84
2023-02-13T02:32:48.268Z,103002.25
2023-02-13T02:38:03.341Z,102993.09
2023-02-13T02:43:17.859Z,102993.00
2023-02-13T02:48:45.107Z,102991.63
2023-02-13T02:53:55.914Z,102987.81
2023-02-13T02:59:34.488Z,102978.75
2023-02-13T03:05:00.283Z,102974.00
2023-02-13T03:10:35.935Z,102984.94
2023-02-13T03:16:00.819Z,102981.88
2023-02-13T03:21:29.655Z,102981.69
2023-02-13T03:26:49.984Z,102985.38
2023-02-13T03:32:01.527Z,102988.03
2023-02-13T03:37:29.270Z,102990.97
2023-02-13T03:42:35.071Z,102991.13
2023-02-13T03:47:39.184Z,102996.41
2023-02-13T03:52:47.588Z,102997.84
2023-02-13T03:58:11.599Z,102988.06
2023-02-13T04:03:18.572Z,102991.25
2023-02-13T04:08:23.462Z,102999.16
2023-02-13T04:13:30.954Z,102997.16
2023-02-13T04:18:35.180Z,102994.22
2023-02-13T04:23:39.942Z,102995.09
2023-02-13T04:28:43.400Z,102989.84
2023-02-13T04:33:46.855Z,102985.75
2023-02-13T04:38:51.762Z,102981.28
2023-02-13T04:43:55.196Z,102981.50
2023-02-13T04:48:58.616Z,102980.44
2023-02-13T04:54:03.489Z,102977.84
2023-02-13T04:59:08.101Z,102978.56
2023-02-13T05:04:16.152Z,102975.66
2023-02-13T05:09:21.092Z,102980.00
2023-02-13T05:14:24.532Z,102984.81
2023-02-13T05:19:28.165Z,102986.91
2023-02-13T05:24:33.069Z,102994.75
2023-02-13T05:29:36.493Z,102990.72
2023-02-13T05:34:39.923Z,102996.38
2023-02-13T05:39:44.765Z,102999.00
2023-02-13T05:44:48.215Z,102995.28
2023-02-13T05:49:51.608Z,102991.84
2023-02-13T05:54:56.464Z,103000.28
2023-02-13T05:59:59.938Z,102999.28
2023-02-13T06:05:03.432Z,103000.06
2023-02-13T06:10:09.067Z,103008.44
2023-02-13T06:15:12.487Z,103012.59
2023-02-13T06:20:16.120Z,103008.88
2023-02-13T06:25:21.747Z,103019.19
2023-02-13T06:30:25.279Z,103015.22
2023-02-13T06:35:29.079Z,103019.63
2023-02-13T06:40:34.158Z,103028.63
2023-02-13T06:45:38.625Z,103027.84
2023-02-13T06:50:42.446Z,103028.06
2023-02-13T06:55:47.437Z,103022.88
2023-02-13T07:00:51.471Z,103032.41
2023-02-13T07:05:54.957Z,103039.72
2023-02-13T07:10:59.956Z,103038.75
2023-02-13T07:16:03.597Z,103038.97
2023-02-13T07:21:07.191Z,103034.69
2023-02-13T07:26:12.100Z,103041.28
2023-02-13T07:31:15.791Z,103051.91
2023-02-13T07:36:19.329Z,103056.72
2023-02-13T07:41:26.831Z,103057.78
2023-02-13T07:46:30.583Z,103061.25
2023-02-13T07:51:34.057Z,103059.06
2023-02-13T07:56:39.049Z,103062.50
2023-02-13T08:01:42.740Z,103066.00
2023-02-13T08:06:46.381Z,103061.06
2023-02-13T08:11:57.340Z,103063.16
2023-02-13T08:17:01.545Z,103068.09
2023-02-13T08:22:04.989Z,103080.91
2023-02-13T08:27:12.732Z,103083.91
2023-02-13T08:32:16.476Z,103081.22
2023-02-13T08:37:20.143Z,103076.16
2023-02-13T08:42:25.018Z,103074.34
2023-02-13T08:47:28.485Z,103081.03
2023-02-13T08:52:32.040Z,103083.41
2023-02-13T08:57:37.073Z,103080.50
2023-02-13T09:02:40.629Z,103080.88
2023-02-13T09:07:44.163Z,103079.63
2023-02-13T09:12:54.469Z,103076.22
2023-02-13T09:17:57.960Z,103071.00
2023-02-13T09:23:01.468Z,103070.50
2023-02-13T09:28:06.600Z,103071.94
2023-02-13T09:33:11.818Z,103065.41
2023-02-13T09:38:15.364Z,103066.63
2023-02-13T09:43:27.208Z,103068.75
2023-02-13T09:48:32.249Z,103061.06
2023-02-13T09:53:38.329Z,103059.56
2023-02-13T09:58:46.367Z,103069.00
2023-02-13T10:03:53.810Z,103063.31
2023-02-13T10:09:07.783Z,103077.69
2023-02-13T10:14:17.267Z,103068.25
2023-02-13T10:19:31.365Z,103074.75
2023-02-13T10:24:38.044Z,103083.25
2023-02-13T10:30:04.484Z,103081.34
2023-02-13T10:35:21.259Z,103082.56
2023-02-13T10:40:28.137Z,103079.84
2023-02-13T10:45:49.315Z,103079.91
2023-02-13T10:50:58.603Z,103076.34
2023-02-13T10:56:17.486Z,103081.41
2023-02-13T11:01:30.924Z,103081.94
2023-02-13T11:06:37.720Z,103074.09
2023-02-13T11:11:43.233Z,103069.06
2023-02-13T11:16:55.435Z,103058.94
2023-02-13T11:22:01.065Z,103056.56
2023-02-13T11:27:09.121Z,103061.47
2023-02-13T11:32:22.661Z,103063.72
2023-02-13T11:37:28.340Z,103056.56
2023-02-13T11:42:33.396Z,103045.72
2023-02-13T11:47:40.589Z,103047.56
2023-02-13T11:52:55.352Z,103043.28
2023-02-13T11:58:00.436Z,103042.09
2023-02-13T12:03:26.655Z,103034.81
2023-02-13T12:08:30.640Z,103026.09
2023-02-13T12:13:36.883Z,103020.25
2023-02-13T12:18:43.041Z,103020.38
2023-02-13T12:23:50.781Z,103027.31
2023-02-13T12:29:11.354Z,103004.81
2023-02-13T12:34:50.184Z,102991.78
2023-02-13T12:40:13.263Z,103005.41
2023-02-13T12:45:26.476Z,102991.13
2023-02-13T12:50:39.506Z,102994.34
2023-02-13T12:56:02.427Z,102987.97
2023-02-13T13:01:09.921Z,102988.56
2023-02-13T13:06:40.802Z,102974.75
2023-02-13T13:12:01.940Z,102981.59
2023-02-13T13:17:09.070Z,102981.16
2023-02-13T13:22:15.665Z,102985.38
2023-02-13T13:27:23.229Z,102964.63
2023-02-13T13:32:27.337Z,102970.03
2023-02-13T13:37:34.833Z,102967.56
2023-02-13T13:42:43.144Z,102955.91
2023-02-13T13:47:54.833Z,102957.69
2023-02-13T13:53:13.345Z,102938.59
2023-02-13T13:58:24.436Z,102942.69
2023-02-13T14:03:36.402Z,102936.91
2023-02-13T14:09:08.442Z,102921.59
2023-02-13T14:14:53.528Z,102920.66
2023-02-13T14:19:59.147Z,102914.56
2023-02-13T14:25:04.174Z,102912.47
2023-02-13T14:30:27.614Z,102919.31
2023-02-13T14:35:34.733Z,102919.47
2023-02-13T14:40:47.474Z,102921.66
2023-02-13T14:45:54.258Z,102921.78
2023-02-13T14:51:00.113Z,102916.88
2023-02-13T14:56:07.341Z,102927.34
2023-02-13T15:01:27.565Z,102920.84
2023-02-13T15:06:35.041Z,102919.28
2023-02-13T15:11:42.754Z,102921.09
2023-02-13T15:16:48.115Z,102920.03
2023-02-13T15:21:58.753Z,102921.78
2023-02-13T15:27:03.841Z,102926.13
2023-02-13T15:32:21.653Z,102912.13
2023-02-13T15:37:29.438Z,102915.66
2023-02-13T15:42:33.428Z,102915.91
2023-02-13T15:47:36.838Z,102920.63
2023-02-13T15:52:41.774Z,102920.75
2023-02-13T15:57:45.376Z,102915.13
2023-02-13T16:02:49.161Z,102920.44
2023-02-13T16:07:55.805Z,102913.91
2023-02-13T16:13:00.480Z,102915.66
2023-02-13T16:18:06.205Z,102917.66
2023-02-13T16:23:16.979Z,102907.53
2023-02-13T16:28:22.542Z,102914.72
2023-02-13T16:33:29.368Z,102922.13
2023-02-13T16:38:36.319Z,102908.44
2023-02-13T16:43:46.059Z,102904.22
2023-02-13T16:49:13.684Z,102902.81
2023-02-13T16:54:38.053Z,102919.81
2023-02-13T17:00:02.071Z,102915.03
2023-02-13T17:05:23.557Z,102913.13
2023-02-13T17:10:31.046Z,102908.56
2023-02-13T17:15:35.367Z,102913.94
2023-02-13T17:20:42.401Z,102923.63
2023-02-13T17:25:48.012Z,102918.00
2023-02-13T17:30:53.653Z,102918.03
2023-02-13T17:35:57.490Z,102933.75
2023-02-13T17:41:02.384Z,102936.63
2023-02-13T17:46:06.156Z,102927.72
2023-02-13T17:51:10.799Z,102925.69
2023-02-13T17:56:16.059Z,102930.69
2023-02-13T18:01:19.603Z,102933.00
2023-02-13T18:06:23.025Z,102929.66
2023-02-13T18:11:27.853Z,102930.22
2023-02-13T18:16:32.089Z,102938.28
2023-02-13T18:21:35.627Z,102940.47
2023-02-13T18:26:40.416Z,102942.25
2023-02-13T18:31:44.043Z,102941.50
2023-02-13T18:36:47.673Z,102942.00
2023-02-13T18:41:52.656Z,102935.03
2023-02-13T18:46:56.211Z,102941.78
2023-02-13T18:52:00.750Z,102939.59
2023-02-13T18:57:05.842Z,102942.69
2023-02-13T19:02:11.624Z,102932.72
2023-02-13T19:07:17.166Z,102926.94
2023-02-13T19:12:22.034Z,102922.97
2023-02-13T19:17:25.544Z,102923.19
2023-02-13T19:22:29.004Z,102924.53
2023-02-13T19:27:33.848Z,102912.59
2023-02-13T19:32:37.399Z,102913.31
2023-02-13T19:37:44.320Z,102918.41
2023-02-13T19:42:49.454Z,102921.31
2023-02-13T19:47:54.546Z,102925.47
2023-02-13T19:52:58.121Z,102931.13
2023-02-13T19:58:03.126Z,102919.13
2023-02-13T20:03:06.712Z,102921.38
2023-02-13T20:08:10.350Z,102927.00
2023-02-13T20:13:15.356Z,102923.03
2023-02-13T20:18:19.607Z,102926.19
2023-02-13T20:23:23.068Z,102923.06
2023-02-13T20:28:28.038Z,102924.97
2023-02-13T20:33:31.636Z,102914.59
2023-02-13T20:38:35.149Z,102914.97
2023-02-13T20:43:40.216Z,102915.16
2023-02-13T20:48:44.967Z,102913.44
2023-02-13T20:53:48.915Z,102923.50
2023-02-13T20:58:54.575Z,102914.00
2023-02-13T21:03:58.634Z,102911.59
2023-02-13T21:09:03.174Z,102910.97
2023-02-13T21:14:08.325Z,102912.84
2023-02-13T21:19:16.341Z,102907.94
2023-02-13T21:24:21.974Z,102912.56
2023-02-13T21:29:26.935Z,102907.50
2023-02-13T21:34:30.491Z,102915.75
2023-02-13T21:39:34.387Z,102915.75
2023-02-13T21:44:39.552Z,102906.06
2023-02-13T21:49:43.474Z,102907.31
2023-02-13T21:54:47.009Z,102915.22
2023-02-13T21:59:51.912Z,102918.97
2023-02-13T22:04:55.414Z,102923.56
2023-02-13T22:09:58.977Z,102915.16
2023-02-13T22:15:04.288Z,102914.78
2023-02-13T22:20:09.005Z,102913.03
2023-02-13T22:25:12.513Z,102913.25
2023-02-13T22:30:17.799Z,102923.09
2023-02-13T22:35:21.918Z,102917.16
2023-02-13T22:40:25.597Z,102925.78
2023-02-13T22:45:30.632Z,102931.81
2023-02-13T22:50:34.785Z,102933.75
2023-02-13T22:55:38.286Z,102940.03
2023-02-13T23:00:43.159Z,102936.25
2023-02-13T23:05:46.760Z,102934.34
2023-02-13T23:11:04.173Z,102939.75
2023-02-13T23:16:14.672Z,102930.97
2023-02-13T23:21:18.288Z,102929.97
2023-02-13T23:26:21.732Z,102930.38
2023-02-13T23:31:26.732Z,102928.66
2023-02-13T23:36:30.344Z,102925.63
2023-02-13T23:41:33.941Z,102927.03
2023-02-13T23:46:38.968Z,102923.53
2023-02-13T23:51:42.460Z,102920.88
2023-02-13T23:56:46.062Z,102917.47
